sensor_id;sensor_type;location;lat;lon;timestamp;P1;durP1;ratioP1;P2;durP2;ratioP2
17528;SDS011;8882;53.192;8.184;2023-07-28T04:30:35;19.27;;;9.97;;
17528;SDS011;8882;53.192;8.184;2023-07-28T04:33:00;19.30;;;9.27;;
17528;SDS011;8882;53.192;8.184;2023-07-28T04:35:26;12.77;;;8.73;;
17528;SDS011;8882;53.192;8.184;2023-07-28T04:37:52;18.37;;;9.30;;
17528;SDS011;8882;53.192;8.184;2023-07-28T04:40:17;19.47;;;9.70;;
17528;SDS011;8882;53.192;8.184;2023-07-28T04:42:44;17.33;;;9.67;;
17528;SDS011;8882;53.192;8.184;2023-07-28T04:45:10;14.80;;;9.47;;
17528;SDS011;8882;53.192;8.184;2023-07-28T04:47:35;14.30;;;9.63;;
17528;SDS011;8882;53.192;8.184;2023-07-28T04:50:01;16.13;;;8.93;;
17528;SDS011;8882;53.192;8.184;2023-07-28T04:52:26;14.00;;;9.77;;
17528;SDS011;8882;53.192;8.184;2023-07-28T04:54:52;15.90;;;9.70;;
17528;SDS011;8882;53.192;8.184;2023-07-28T04:57:18;15.97;;;9.33;;
17528;SDS011;8882;53.192;8.184;2023-07-28T04:59:44;23.00;;;10.13;;
17528;SDS011;8882;53.192;8.184;2023-07-28T05:02:09;14.13;;;8.77;;
17528;SDS011;8882;53.192;8.184;2023-07-28T05:04:35;18.50;;;9.40;;
17528;SDS011;8882;53.192;8.184;2023-07-28T05:07:01;13.20;;;9.07;;
17528;SDS011;8882;53.192;8.184;2023-07-28T05:09:27;15.00;;;9.43;;
17528;SDS011;8882;53.192;8.184;2023-07-28T05:11:53;15.93;;;10.03;;
17528;SDS011;8882;53.192;8.184;2023-07-28T05:14:19;19.50;;;9.97;;
17528;SDS011;8882;53.192;8.184;2023-07-28T05:16:45;15.67;;;10.40;;
17528;SDS011;8882;53.192;8.184;2023-07-28T05:19:11;18.83;;;10.07;;
17528;SDS011;8882;53.192;8.184;2023-07-28T05:21:37;14.53;;;9.77;;
17528;SDS011;8882;53.192;8.184;2023-07-28T05:24:03;17.90;;;10.63;;
17528;SDS011;8882;53.192;8.184;2023-07-28T05:26:28;15.97;;;10.20;;
17528;SDS011;8882;53.192;8.184;2023-07-28T05:28:54;16.97;;;10.17;;
17528;SDS011;8882;53.192;8.184;2023-07-28T05:31:19;20.37;;;10.63;;
17528;SDS011;8882;53.192;8.184;2023-07-28T05:33:45;17.70;;;10.10;;
17528;SDS011;8882;53.192;8.184;2023-07-28T05:36:10;14.13;;;10.10;;
17528;SDS011;8882;53.192;8.184;2023-07-28T05:38:36;19.53;;;10.43;;
17528;SDS011;8882;53.192;8.184;2023-07-28T05:41:02;16.73;;;10.23;;
17528;SDS011;8882;53.192;8.184;2023-07-28T05:43:30;14.80;;;9.57;;
17528;SDS011;8882;53.192;8.184;2023-07-28T05:45:59;16.77;;;10.63;;
17528;SDS011;8882;53.192;8.184;2023-07-28T05:48:25;19.80;;;9.87;;
17528;SDS011;8882;53.192;8.184;2023-07-28T05:50:51;16.97;;;9.47;;
17528;SDS011;8882;53.192;8.184;2023-07-28T05:53:18;18.97;;;10.33;;
17528;SDS011;8882;53.192;8.184;2023-07-28T05:55:47;16.60;;;9.90;;
17528;SDS011;8882;53.192;8.184;2023-07-28T05:58:13;16.37;;;9.90;;
17528;SDS011;8882;53.192;8.184;2023-07-28T06:00:39;17.37;;;9.50;;
17528;SDS011;8882;53.192;8.184;2023-07-28T06:03:06;17.03;;;9.57;;
17528;SDS011;8882;53.192;8.184;2023-07-28T06:05:32;20.83;;;11.33;;
17528;SDS011;8882;53.192;8.184;2023-07-28T06:07:57;18.50;;;9.97;;
17528;SDS011;8882;53.192;8.184;2023-07-28T06:10:23;19.60;;;11.93;;
17528;SDS011;8882;53.192;8.184;2023-07-28T06:12:48;18.07;;;11.13;;
17528;SDS011;8882;53.192;8.184;2023-07-28T06:15:14;19.17;;;9.87;;
17528;SDS011;8882;53.192;8.184;2023-07-28T06:17:39;22.70;;;10.40;;
17528;SDS011;8882;53.192;8.184;2023-07-28T06:20:05;21.53;;;10.10;;
17528;SDS011;8882;53.192;8.184;2023-07-28T06:22:31;21.60;;;10.40;;
17528;SDS011;8882;53.192;8.184;2023-07-28T06:24:56;18.77;;;9.70;;
17528;SDS011;8882;53.192;8.184;2023-07-28T06:27:22;19.03;;;11.17;;
17528;SDS011;8882;53.192;8.184;2023-07-28T06:29:47;18.83;;;10.60;;
17528;SDS011;8882;53.192;8.184;2023-07-28T06:32:13;19.47;;;10.77;;
17528;SDS011;8882;53.192;8.184;2023-07-28T06:34:38;21.73;;;11.73;;
17528;SDS011;8882;53.192;8.184;2023-07-28T06:37:04;19.33;;;12.17;;
17528;SDS011;8882;53.192;8.184;2023-07-28T06:39:30;20.03;;;10.70;;
17528;SDS011;8882;53.192;8.184;2023-07-28T06:41:55;22.50;;;11.63;;
17528;SDS011;8882;53.192;8.184;2023-07-28T06:44:21;18.47;;;10.90;;
17528;SDS011;8882;53.192;8.184;2023-07-28T06:46:47;23.23;;;12.23;;
17528;SDS011;8882;53.192;8.184;2023-07-28T06:49:13;22.00;;;11.77;;
17528;SDS011;8882;53.192;8.184;2023-07-28T06:51:38;27.23;;;12.00;;
17528;SDS011;8882;53.192;8.184;2023-07-28T06:54:04;20.30;;;11.03;;
17528;SDS011;8882;53.192;8.184;2023-07-28T06:56:29;20.57;;;11.70;;
17528;SDS011;8882;53.192;8.184;2023-07-28T06:58:55;21.20;;;11.23;;
17528;SDS011;8882;53.192;8.184;2023-07-28T07:01:20;20.87;;;11.90;;
17528;SDS011;8882;53.192;8.184;2023-07-28T07:03:47;19.73;;;11.70;;
17528;SDS011;8882;53.192;8.184;2023-07-28T07:06:12;18.63;;;11.70;;
17528;SDS011;8882;53.192;8.184;2023-07-28T07:08:38;16.57;;;10.73;;
17528;SDS011;8882;53.192;8.184;2023-07-28T07:11:03;24.10;;;12.03;;
17528;SDS011;8882;53.192;8.184;2023-07-28T07:13:30;16.83;;;10.57;;
17528;SDS011;8882;53.192;8.184;2023-07-28T07:15:56;18.47;;;11.23;;
17528;SDS011;8882;53.192;8.184;2023-07-28T07:18:22;17.03;;;11.07;;
17528;SDS011;8882;53.192;8.184;2023-07-28T07:20:47;22.00;;;11.60;;
17528;SDS011;8882;53.192;8.184;2023-07-28T07:23:13;19.63;;;10.87;;
17528;SDS011;8882;53.192;8.184;2023-07-28T07:25:39;20.80;;;11.87;;
17528;SDS011;8882;53.192;8.184;2023-07-28T07:28:04;17.80;;;10.70;;
17528;SDS011;8882;53.192;8.184;2023-07-28T07:30:34;18.43;;;10.93;;
17528;SDS011;8882;53.192;8.184;2023-07-28T07:32:59;19.37;;;11.33;;
17528;SDS011;8882;53.192;8.184;2023-07-28T07:35:25;15.90;;;10.57;;
17528;SDS011;8882;53.192;8.184;2023-07-28T07:37:51;20.33;;;11.50;;
17528;SDS011;8882;53.192;8.184;2023-07-28T07:40:16;17.30;;;11.50;;
17528;SDS011;8882;53.192;8.184;2023-07-28T07:42:43;19.30;;;11.77;;
17528;SDS011;8882;53.192;8.184;2023-07-28T07:45:13;18.73;;;11.37;;
17528;SDS011;8882;53.192;8.184;2023-07-28T07:47:39;15.97;;;11.50;;
17528;SDS011;8882;53.192;8.184;2023-07-28T07:50:06;18.43;;;11.60;;
17528;SDS011;8882;53.192;8.184;2023-07-28T07:52:34;19.13;;;10.87;;
17528;SDS011;8882;53.192;8.184;2023-07-28T07:55:00;15.77;;;11.00;;
17528;SDS011;8882;53.192;8.184;2023-07-28T07:57:26;16.17;;;10.47;;
17528;SDS011;8882;53.192;8.184;2023-07-28T07:59:52;19.13;;;10.40;;
17528;SDS011;8882;53.192;8.184;2023-07-28T08:02:17;20.17;;;10.70;;
17528;SDS011;8882;53.192;8.184;2023-07-28T08:04:43;16.17;;;10.87;;
17528;SDS011;8882;53.192;8.184;2023-07-28T08:07:08;15.00;;;9.97;;
17528;SDS011;8882;53.192;8.184;2023-07-28T08:09:34;16.20;;;10.37;;
17528;SDS011;8882;53.192;8.184;2023-07-28T08:12:00;16.53;;;10.43;;
17528;SDS011;8882;53.192;8.184;2023-07-28T08:14:26;15.37;;;10.17;;
17528;SDS011;8882;53.192;8.184;2023-07-28T08:16:51;16.33;;;10.13;;
17528;SDS011;8882;53.192;8.184;2023-07-28T08:19:17;16.93;;;10.10;;
17528;SDS011;8882;53.192;8.184;2023-07-28T08:21:42;14.23;;;10.20;;
17528;SDS011;8882;53.192;8.184;2023-07-28T08:24:08;11.70;;;9.73;;
17528;SDS011;8882;53.192;8.184;2023-07-28T08:26:34;12.63;;;9.17;;
17528;SDS011;8882;53.192;8.184;2023-07-28T08:28:59;17.43;;;9.30;;
17528;SDS011;8882;53.192;8.184;2023-07-28T08:31:25;19.33;;;9.40;;
17528;SDS011;8882;53.192;8.184;2023-07-28T08:33:50;14.97;;;9.80;;
17528;SDS011;8882;53.192;8.184;2023-07-28T08:36:16;17.03;;;11.00;;
17528;SDS011;8882;53.192;8.184;2023-07-28T08:38:42;16.10;;;10.67;;
17528;SDS011;8882;53.192;8.184;2023-07-28T08:41:09;15.83;;;10.37;;
17528;SDS011;8882;53.192;8.184;2023-07-28T08:43:34;15.40;;;10.37;;
17528;SDS011;8882;53.192;8.184;2023-07-28T08:46:00;12.73;;;8.80;;
17528;SDS011;8882;53.192;8.184;2023-07-28T08:48:25;15.23;;;8.83;;
17528;SDS011;8882;53.192;8.184;2023-07-28T08:50:52;13.20;;;8.67;;
17528;SDS011;8882;53.192;8.184;2023-07-28T08:53:18;11.53;;;9.80;;
17528;SDS011;8882;53.192;8.184;2023-07-28T08:55:44;15.10;;;9.27;;
17528;SDS011;8882;53.192;8.184;2023-07-28T08:58:13;10.77;;;7.47;;
17528;SDS011;8882;53.192;8.184;2023-07-28T09:00:40;9.87;;;7.27;;
17528;SDS011;8882;53.192;8.184;2023-07-28T09:03:08;10.40;;;7.67;;
17528;SDS011;8882;53.192;8.184;2023-07-28T09:05:33;10.90;;;6.70;;
17528;SDS011;8882;53.192;8.184;2023-07-28T09:07:59;10.47;;;6.03;;
17528;SDS011;8882;53.192;8.184;2023-07-28T09:10:24;10.03;;;6.47;;
17528;SDS011;8882;53.192;8.184;2023-07-28T09:12:50;9.00;;;6.10;;
17528;SDS011;8882;53.192;8.184;2023-07-28T09:15:16;8.63;;;5.57;;
17528;SDS011;8882;53.192;8.184;2023-07-28T09:17:42;8.53;;;5.40;;
17528;SDS011;8882;53.192;8.184;2023-07-28T09:20:12;7.87;;;4.80;;
17528;SDS011;8882;53.192;8.184;2023-07-28T09:22:42;11.40;;;5.77;;
17528;SDS011;8882;53.192;8.184;2023-07-28T09:25:15;10.63;;;5.50;;
17528;SDS011;8882;53.192;8.184;2023-07-28T09:27:49;9.33;;;5.53;;
17528;SDS011;8882;53.192;8.184;2023-07-28T09:30:18;7.73;;;5.23;;
17528;SDS011;8882;53.192;8.184;2023-07-28T09:32:48;7.30;;;4.77;;
17528;SDS011;8882;53.192;8.184;2023-07-28T09:35:14;7.20;;;4.90;;
17528;SDS011;8882;53.192;8.184;2023-07-28T09:37:41;8.13;;;5.17;;
17528;SDS011;8882;53.192;8.184;2023-07-28T09:40:10;6.73;;;4.97;;
17528;SDS011;8882;53.192;8.184;2023-07-28T09:42:41;9.47;;;6.13;;
17528;SDS011;8882;53.192;8.184;2023-07-28T09:45:08;7.13;;;5.40;;
17528;SDS011;8882;53.192;8.184;2023-07-28T09:47:35;10.17;;;5.67;;
17528;SDS011;8882;53.192;8.184;2023-07-28T09:50:02;7.43;;;5.13;;
17528;SDS011;8882;53.192;8.184;2023-07-28T09:52:34;7.07;;;4.97;;
17528;SDS011;8882;53.192;8.184;2023-07-28T09:55:09;8.70;;;5.23;;
17528;SDS011;8882;53.192;8.184;2023-07-28T09:57:37;6.53;;;5.30;;
17528;SDS011;8882;53.192;8.184;2023-07-28T10:00:06;6.23;;;5.17;;
17528;SDS011;8882;53.192;8.184;2023-07-28T10:02:35;5.73;;;5.13;;
17528;SDS011;8882;53.192;8.184;2023-07-28T10:05:02;6.90;;;4.70;;
17528;SDS011;8882;53.192;8.184;2023-07-28T10:07:29;6.97;;;4.00;;
17528;SDS011;8882;53.192;8.184;2023-07-28T10:09:55;7.20;;;4.77;;
17528;SDS011;8882;53.192;8.184;2023-07-28T10:12:24;4.43;;;4.03;;
17528;SDS011;8882;53.192;8.184;2023-07-28T10:15:02;6.07;;;4.77;;
17528;SDS011;8882;53.192;8.184;2023-07-28T10:17:32;5.80;;;4.77;;
17528;SDS011;8882;53.192;8.184;2023-07-28T10:20:00;6.17;;;4.27;;
17528;SDS011;8882;53.192;8.184;2023-07-28T10:22:34;4.53;;;4.10;;
17528;SDS011;8882;53.192;8.184;2023-07-28T10:25:10;3.83;;;3.23;;
17528;SDS011;8882;53.192;8.184;2023-07-28T10:30:04;4.83;;;3.23;;
17528;SDS011;8882;53.192;8.184;2023-07-28T10:32:38;3.67;;;3.30;;
17528;SDS011;8882;53.192;8.184;2023-07-28T10:35:09;5.60;;;3.50;;
17528;SDS011;8882;53.192;8.184;2023-07-28T10:37:38;3.73;;;3.17;;
17528;SDS011;8882;53.192;8.184;2023-07-28T10:43:02;3.08;;;2.72;;
17528;SDS011;8882;53.192;8.184;2023-07-28T10:45:30;5.30;;;2.70;;
17528;SDS011;8882;53.192;8.184;2023-07-28T10:47:56;3.03;;;2.40;;
17528;SDS011;8882;53.192;8.184;2023-07-28T10:50:26;3.07;;;2.40;;
17528;SDS011;8882;53.192;8.184;2023-07-28T10:52:53;3.27;;;2.80;;
17528;SDS011;8882;53.192;8.184;2023-07-28T10:55:22;3.00;;;2.20;;
17528;SDS011;8882;53.192;8.184;2023-07-28T10:57:49;4.13;;;2.50;;
17528;SDS011;8882;53.192;8.184;2023-07-28T11:00:17;2.50;;;2.30;;
17528;SDS011;8882;53.192;8.184;2023-07-28T11:02:44;3.25;;;2.63;;
17528;SDS011;8882;53.192;8.184;2023-07-28T11:05:12;3.50;;;2.93;;
17528;SDS011;8882;53.192;8.184;2023-07-28T11:07:44;3.50;;;2.90;;
17528;SDS011;8882;53.192;8.184;2023-07-28T11:10:10;3.13;;;2.27;;
17528;SDS011;8882;53.192;8.184;2023-07-28T11:12:42;4.50;;;2.50;;
17528;SDS011;8882;53.192;8.184;2023-07-28T11:15:09;2.63;;;2.43;;
17528;SDS011;8882;53.192;8.184;2023-07-28T11:17:39;2.70;;;2.50;;
17528;SDS011;8882;53.192;8.184;2023-07-28T11:20:15;2.95;;;2.60;;
17528;SDS011;8882;53.192;8.184;2023-07-28T11:22:44;2.40;;;2.20;;
17528;SDS011;8882;53.192;8.184;2023-07-28T11:25:11;2.53;;;2.33;;
17528;SDS011;8882;53.192;8.184;2023-07-28T11:27:38;2.72;;;2.22;;
17528;SDS011;8882;53.192;8.184;2023-07-28T11:30:05;2.70;;;2.50;;
17528;SDS011;8882;53.192;8.184;2023-07-28T11:32:36;3.17;;;2.45;;
17528;SDS011;8882;53.192;8.184;2023-07-28T11:35:05;5.55;;;3.00;;
17528;SDS011;8882;53.192;8.184;2023-07-28T11:37:32;2.88;;;2.58;;
17528;SDS011;8882;53.192;8.184;2023-07-28T11:39:59;2.75;;;2.47;;
17528;SDS011;8882;53.192;8.184;2023-07-28T11:42:27;3.95;;;2.35;;
17528;SDS011;8882;53.192;8.184;2023-07-28T11:44:53;2.65;;;2.45;;
17528;SDS011;8882;53.192;8.184;2023-07-28T11:47:20;2.50;;;2.30;;
17528;SDS011;8882;53.192;8.184;2023-07-28T11:49:46;3.92;;;2.35;;
17528;SDS011;8882;53.192;8.184;2023-07-28T11:52:12;4.38;;;2.60;;
17528;SDS011;8882;53.192;8.184;2023-07-28T11:54:38;2.05;;;1.90;;
17528;SDS011;8882;53.192;8.184;2023-07-28T11:57:04;3.65;;;2.50;;
17528;SDS011;8882;53.192;8.184;2023-07-28T11:59:34;2.80;;;2.60;;
17528;SDS011;8882;53.192;8.184;2023-07-28T12:02:00;2.47;;;2.30;;
17528;SDS011;8882;53.192;8.184;2023-07-28T12:04:28;2.83;;;2.10;;
17528;SDS011;8882;53.192;8.184;2023-07-28T12:07:09;2.35;;;2.17;;
17528;SDS011;8882;53.192;8.184;2023-07-28T12:12:15;2.58;;;2.10;;
17528;SDS011;8882;53.192;8.184;2023-07-28T12:14:41;2.50;;;2.30;;
17528;SDS011;8882;53.192;8.184;2023-07-28T12:17:14;3.00;;;1.92;;
17528;SDS011;8882;53.192;8.184;2023-07-28T12:19:40;2.15;;;1.98;;
17528;SDS011;8882;53.192;8.184;2023-07-28T12:22:08;3.35;;;2.08;;
17528;SDS011;8882;53.192;8.184;2023-07-28T12:24:33;3.78;;;2.30;;
17528;SDS011;8882;53.192;8.184;2023-07-28T12:26:59;3.58;;;2.08;;
17528;SDS011;8882;53.192;8.184;2023-07-28T12:29:24;2.25;;;2.05;;
17528;SDS011;8882;53.192;8.184;2023-07-28T12:31:50;2.25;;;2.05;;
17528;SDS011;8882;53.192;8.184;2023-07-28T12:34:15;2.08;;;1.88;;
17528;SDS011;8882;53.192;8.184;2023-07-28T12:36:41;1.90;;;1.67;;
17528;SDS011;8882;53.192;8.184;2023-07-28T12:39:07;2.63;;;1.98;;
17528;SDS011;8882;53.192;8.184;2023-07-28T12:41:33;1.88;;;1.70;;
17528;SDS011;8882;53.192;8.184;2023-07-28T12:43:58;3.83;;;1.85;;
17528;SDS011;8882;53.192;8.184;2023-07-28T12:46:24;1.77;;;1.65;;
17528;SDS011;8882;53.192;8.184;2023-07-28T12:48:49;2.20;;;1.55;;
17528;SDS011;8882;53.192;8.184;2023-07-28T12:51:15;1.60;;;1.50;;
17528;SDS011;8882;53.192;8.184;2023-07-28T12:53:40;2.28;;;1.40;;
17528;SDS011;8882;53.192;8.184;2023-07-28T12:56:06;2.70;;;1.40;;
17528;SDS011;8882;53.192;8.184;2023-07-28T12:58:31;1.98;;;1.40;;
17528;SDS011;8882;53.192;8.184;2023-07-28T13:00:58;1.83;;;1.60;;
17528;SDS011;8882;53.192;8.184;2023-07-28T13:03:26;2.28;;;1.90;;
17528;SDS011;8882;53.192;8.184;2023-07-28T13:05:52;1.52;;;1.42;;
17528;SDS011;8882;53.192;8.184;2023-07-28T13:08:17;1.50;;;1.40;;
17528;SDS011;8882;53.192;8.184;2023-07-28T13:10:43;1.40;;;1.30;;
17528;SDS011;8882;53.192;8.184;2023-07-28T13:13:08;3.15;;;1.30;;
17528;SDS011;8882;53.192;8.184;2023-07-28T13:15:34;1.48;;;1.38;;
17528;SDS011;8882;53.192;8.184;2023-07-28T13:18:00;3.42;;;1.65;;
17528;SDS011;8882;53.192;8.184;2023-07-28T13:20:25;1.98;;;1.10;;
17528;SDS011;8882;53.192;8.184;2023-07-28T13:22:51;1.20;;;1.10;;
17528;SDS011;8882;53.192;8.184;2023-07-28T13:25:17;1.55;;;1.23;;
17528;SDS011;8882;53.192;8.184;2023-07-28T13:27:42;1.60;;;1.50;;
17528;SDS011;8882;53.192;8.184;2023-07-28T13:30:08;3.45;;;1.58;;
17528;SDS011;8882;53.192;8.184;2023-07-28T13:32:34;1.60;;;1.50;;
17528;SDS011;8882;53.192;8.184;2023-07-28T13:34:59;1.80;;;1.45;;
17528;SDS011;8882;53.192;8.184;2023-07-28T13:37:25;1.98;;;1.88;;
17528;SDS011;8882;53.192;8.184;2023-07-28T13:39:50;1.70;;;1.60;;
17528;SDS011;8882;53.192;8.184;2023-07-28T13:42:16;1.67;;;1.58;;
17528;SDS011;8882;53.192;8.184;2023-07-28T13:44:42;3.15;;;1.50;;
17528;SDS011;8882;53.192;8.184;2023-07-28T13:47:08;2.10;;;1.65;;
17528;SDS011;8882;53.192;8.184;2023-07-28T13:49:34;1.75;;;1.35;;
17528;SDS011;8882;53.192;8.184;2023-07-28T13:52:03;3.85;;;1.55;;
17528;SDS011;8882;53.192;8.184;2023-07-28T13:54:28;1.80;;;1.70;;
17528;SDS011;8882;53.192;8.184;2023-07-28T13:56:54;1.38;;;1.38;;
17528;SDS011;8882;53.192;8.184;2023-07-28T13:59:20;2.05;;;1.73;;
17528;SDS011;8882;53.192;8.184;2023-07-28T14:01:45;2.47;;;1.77;;
17528;SDS011;8882;53.192;8.184;2023-07-28T14:04:11;1.65;;;1.50;;
17528;SDS011;8882;53.192;8.184;2023-07-28T14:06:36;1.55;;;1.45;;
17528;SDS011;8882;53.192;8.184;2023-07-28T14:09:02;2.72;;;1.40;;
17528;SDS011;8882;53.192;8.184;2023-07-28T14:11:27;3.53;;;1.67;;
17528;SDS011;8882;53.192;8.184;2023-07-28T14:13:53;1.45;;;1.35;;
17528;SDS011;8882;53.192;8.184;2023-07-28T14:16:18;3.67;;;1.67;;
17528;SDS011;8882;53.192;8.184;2023-07-28T14:18:44;2.42;;;1.60;;
17528;SDS011;8882;53.192;8.184;2023-07-28T14:21:12;1.52;;;1.42;;
17528;SDS011;8882;53.192;8.184;2023-07-28T14:23:38;1.65;;;1.55;;
17528;SDS011;8882;53.192;8.184;2023-07-28T14:26:03;3.08;;;1.55;;
17528;SDS011;8882;53.192;8.184;2023-07-28T14:28:29;2.45;;;1.60;;
17528;SDS011;8882;53.192;8.184;2023-07-28T14:30:55;3.63;;;1.60;;
17528;SDS011;8882;53.192;8.184;2023-07-28T14:33:20;1.55;;;1.45;;
17528;SDS011;8882;53.192;8.184;2023-07-28T14:35:47;2.15;;;1.60;;
17528;SDS011;8882;53.192;8.184;2023-07-28T14:38:13;1.83;;;1.40;;
17528;SDS011;8882;53.192;8.184;2023-07-28T14:40:39;3.85;;;1.45;;
17528;SDS011;8882;53.192;8.184;2023-07-28T14:43:05;2.55;;;1.60;;
17528;SDS011;8882;53.192;8.184;2023-07-28T14:45:31;1.55;;;1.45;;
17528;SDS011;8882;53.192;8.184;2023-07-28T14:47:57;1.25;;;1.25;;
17528;SDS011;8882;53.192;8.184;2023-07-28T14:50:22;1.80;;;1.67;;
17528;SDS011;8882;53.192;8.184;2023-07-28T14:52:48;1.83;;;1.73;;
17528;SDS011;8882;53.192;8.184;2023-07-28T14:55:14;1.98;;;1.88;;
17528;SDS011;8882;53.192;8.184;2023-07-28T14:57:40;1.80;;;1.70;;
17528;SDS011;8882;53.192;8.184;2023-07-28T15:00:05;2.20;;;1.50;;
17528;SDS011;8882;53.192;8.184;2023-07-28T15:02:34;1.80;;;1.70;;
17528;SDS011;8882;53.192;8.184;2023-07-28T15:05:01;2.20;;;1.80;;
17528;SDS011;8882;53.192;8.184;2023-07-28T15:07:26;1.85;;;1.70;;
17528;SDS011;8882;53.192;8.184;2023-07-28T15:09:52;2.63;;;1.63;;
17528;SDS011;8882;53.192;8.184;2023-07-28T15:12:18;3.67;;;1.92;;
17528;SDS011;8882;53.192;8.184;2023-07-28T15:14:43;3.88;;;2.05;;
17528;SDS011;8882;53.192;8.184;2023-07-28T15:17:09;2.00;;;1.80;;
17528;SDS011;8882;53.192;8.184;2023-07-28T15:19:34;3.38;;;1.73;;
17528;SDS011;8882;53.192;8.184;2023-07-28T15:22:00;3.30;;;1.88;;
17528;SDS011;8882;53.192;8.184;2023-07-28T15:24:25;2.33;;;2.03;;
17528;SDS011;8882;53.192;8.184;2023-07-28T15:26:51;1.80;;;1.70;;
17528;SDS011;8882;53.192;8.184;2023-07-28T15:29:17;1.65;;;1.55;;
17528;SDS011;8882;53.192;8.184;2023-07-28T15:31:43;1.92;;;1.83;;
17528;SDS011;8882;53.192;8.184;2023-07-28T15:34:08;1.80;;;1.70;;
17528;SDS011;8882;53.192;8.184;2023-07-28T15:36:34;3.00;;;1.65;;
17528;SDS011;8882;53.192;8.184;2023-07-28T15:39:00;2.80;;;1.77;;
17528;SDS011;8882;53.192;8.184;2023-07-28T15:41:25;2.03;;;1.60;;
17528;SDS011;8882;53.192;8.184;2023-07-28T15:43:51;1.92;;;1.67;;
17528;SDS011;8882;53.192;8.184;2023-07-28T15:46:16;1.40;;;1.35;;
17528;SDS011;8882;53.192;8.184;2023-07-28T15:48:42;1.77;;;1.67;;
17528;SDS011;8882;53.192;8.184;2023-07-28T15:51:08;2.00;;;1.83;;
17528;SDS011;8882;53.192;8.184;2023-07-28T15:53:34;3.17;;;2.00;;
17528;SDS011;8882;53.192;8.184;2023-07-28T15:56:00;2.50;;;1.98;;
17528;SDS011;8882;53.192;8.184;2023-07-28T15:58:25;1.90;;;1.80;;
17528;SDS011;8882;53.192;8.184;2023-07-28T16:00:51;1.80;;;1.70;;
17528;SDS011;8882;53.192;8.184;2023-07-28T16:03:16;1.85;;;1.73;;
17528;SDS011;8882;53.192;8.184;2023-07-28T16:05:42;1.92;;;1.83;;
17528;SDS011;8882;53.192;8.184;2023-07-28T16:08:08;1.90;;;1.80;;
17528;SDS011;8882;53.192;8.184;2023-07-28T16:10:34;2.30;;;2.10;;
17528;SDS011;8882;53.192;8.184;2023-07-28T16:13:00;4.00;;;2.47;;
17528;SDS011;8882;53.192;8.184;2023-07-28T16:15:26;2.40;;;2.08;;
17528;SDS011;8882;53.192;8.184;2023-07-28T16:17:51;2.35;;;2.00;;
17528;SDS011;8882;53.192;8.184;2023-07-28T16:20:17;3.33;;;2.30;;
17528;SDS011;8882;53.192;8.184;2023-07-28T16:22:43;3.20;;;2.22;;
17528;SDS011;8882;53.192;8.184;2023-07-28T16:25:08;3.13;;;2.00;;
17528;SDS011;8882;53.192;8.184;2023-07-28T16:27:34;2.20;;;2.00;;
17528;SDS011;8882;53.192;8.184;2023-07-28T16:29:59;2.30;;;1.98;;
17528;SDS011;8882;53.192;8.184;2023-07-28T16:32:28;2.45;;;2.15;;
17528;SDS011;8882;53.192;8.184;2023-07-28T16:34:54;2.47;;;2.28;;
17528;SDS011;8882;53.192;8.184;2023-07-28T16:37:19;2.20;;;2.03;;
17528;SDS011;8882;53.192;8.184;2023-07-28T16:39:45;2.15;;;1.95;;
17528;SDS011;8882;53.192;8.184;2023-07-28T16:42:10;1.90;;;1.67;;
17528;SDS011;8882;53.192;8.184;2023-07-28T16:44:36;1.65;;;1.55;;
17528;SDS011;8882;53.192;8.184;2023-07-28T16:47:03;4.10;;;2.10;;
17528;SDS011;8882;53.192;8.184;2023-07-28T16:49:30;2.20;;;1.77;;
17528;SDS011;8882;53.192;8.184;2023-07-28T16:51:56;1.98;;;1.75;;
17528;SDS011;8882;53.192;8.184;2023-07-28T16:54:22;2.22;;;2.03;;
17528;SDS011;8882;53.192;8.184;2023-07-28T16:56:47;2.25;;;2.00;;
17528;SDS011;8882;53.192;8.184;2023-07-28T16:59:13;1.92;;;1.75;;
17528;SDS011;8882;53.192;8.184;2023-07-28T17:01:38;2.45;;;1.92;;
17528;SDS011;8882;53.192;8.184;2023-07-28T17:04:04;3.10;;;1.98;;
17528;SDS011;8882;53.192;8.184;2023-07-28T17:06:29;3.65;;;2.03;;
17528;SDS011;8882;53.192;8.184;2023-07-28T17:08:55;2.13;;;1.80;;
17528;SDS011;8882;53.192;8.184;2023-07-28T17:11:20;1.90;;;1.80;;
17528;SDS011;8882;53.192;8.184;2023-07-28T17:13:46;2.50;;;2.30;;
17528;SDS011;8882;53.192;8.184;2023-07-28T17:16:11;2.25;;;2.05;;
17528;SDS011;8882;53.192;8.184;2023-07-28T17:18:37;2.30;;;2.10;;
17528;SDS011;8882;53.192;8.184;2023-07-28T17:21:02;2.08;;;1.90;;
17528;SDS011;8882;53.192;8.184;2023-07-28T17:23:28;2.28;;;1.90;;
17528;SDS011;8882;53.192;8.184;2023-07-28T17:25:53;1.80;;;1.70;;
17528;SDS011;8882;53.192;8.184;2023-07-28T17:28:19;1.80;;;1.70;;
17528;SDS011;8882;53.192;8.184;2023-07-28T17:30:44;3.00;;;1.90;;
17528;SDS011;8882;53.192;8.184;2023-07-28T17:33:10;1.83;;;1.70;;
17528;SDS011;8882;53.192;8.184;2023-07-28T17:35:35;1.90;;;1.75;;
17528;SDS011;8882;53.192;8.184;2023-07-28T17:38:01;2.03;;;1.63;;
17528;SDS011;8882;53.192;8.184;2023-07-28T17:40:27;3.15;;;2.00;;
17528;SDS011;8882;53.192;8.184;2023-07-28T17:42:52;2.20;;;2.00;;
17528;SDS011;8882;53.192;8.184;2023-07-28T17:45:18;2.42;;;1.90;;
17528;SDS011;8882;53.192;8.184;2023-07-28T17:47:43;3.25;;;2.17;;
17528;SDS011;8882;53.192;8.184;2023-07-28T17:50:09;3.63;;;1.85;;
17528;SDS011;8882;53.192;8.184;2023-07-28T17:52:35;2.05;;;1.85;;
17528;SDS011;8882;53.192;8.184;2023-07-28T17:55:00;2.70;;;1.80;;
17528;SDS011;8882;53.192;8.184;2023-07-28T17:57:26;1.60;;;1.50;;
17528;SDS011;8882;53.192;8.184;2023-07-28T17:59:52;2.30;;;1.73;;
17528;SDS011;8882;53.192;8.184;2023-07-28T18:02:17;3.67;;;1.65;;
17528;SDS011;8882;53.192;8.184;2023-07-28T18:04:43;2.05;;;1.85;;
17528;SDS011;8882;53.192;8.184;2023-07-28T18:07:09;1.95;;;1.70;;
17528;SDS011;8882;53.192;8.184;2023-07-28T18:09:34;1.88;;;1.70;;
17528;SDS011;8882;53.192;8.184;2023-07-28T18:12:00;2.95;;;2.00;;
17528;SDS011;8882;53.192;8.184;2023-07-28T18:14:26;2.95;;;2.08;;
17528;SDS011;8882;53.192;8.184;2023-07-28T18:16:51;1.80;;;1.70;;
17528;SDS011;8882;53.192;8.184;2023-07-28T18:19:18;1.83;;;1.73;;
17528;SDS011;8882;53.192;8.184;2023-07-28T18:21:43;2.17;;;1.95;;
17528;SDS011;8882;53.192;8.184;2023-07-28T18:24:09;1.77;;;1.67;;
17528;SDS011;8882;53.192;8.184;2023-07-28T18:26:34;1.90;;;1.80;;
17528;SDS011;8882;53.192;8.184;2023-07-28T18:29:00;1.83;;;1.73;;
17528;SDS011;8882;53.192;8.184;2023-07-28T18:31:25;2.53;;;2.00;;
17528;SDS011;8882;53.192;8.184;2023-07-28T18:33:51;2.40;;;2.20;;
17528;SDS011;8882;53.192;8.184;2023-07-28T18:36:16;3.22;;;2.08;;
17528;SDS011;8882;53.192;8.184;2023-07-28T18:38:42;3.25;;;2.28;;
17528;SDS011;8882;53.192;8.184;2023-07-28T18:41:08;2.30;;;2.08;;
17528;SDS011;8882;53.192;8.184;2023-07-28T18:43:34;1.88;;;1.77;;
17528;SDS011;8882;53.192;8.184;2023-07-28T18:45:59;2.50;;;2.10;;
17528;SDS011;8882;53.192;8.184;2023-07-28T18:48:24;2.17;;;1.85;;
17528;SDS011;8882;53.192;8.184;2023-07-28T18:50:50;2.50;;;2.00;;
17528;SDS011;8882;53.192;8.184;2023-07-28T18:53:16;4.38;;;2.40;;
17528;SDS011;8882;53.192;8.184;2023-07-28T18:55:41;4.70;;;2.28;;
17528;SDS011;8882;53.192;8.184;2023-07-28T18:58:07;2.75;;;2.30;;
17528;SDS011;8882;53.192;8.184;2023-07-28T19:00:33;3.25;;;2.65;;
17528;SDS011;8882;53.192;8.184;2023-07-28T19:02:59;2.22;;;2.00;;
17528;SDS011;8882;53.192;8.184;2023-07-28T19:05:24;3.38;;;1.83;;
17528;SDS011;8882;53.192;8.184;2023-07-28T19:07:50;4.47;;;1.98;;
17528;SDS011;8882;53.192;8.184;2023-07-28T19:10:16;2.33;;;2.03;;
17528;SDS011;8882;53.192;8.184;2023-07-28T19:12:42;3.00;;;2.35;;
17528;SDS011;8882;53.192;8.184;2023-07-28T19:15:07;2.75;;;2.20;;
17528;SDS011;8882;53.192;8.184;2023-07-28T19:17:33;2.60;;;2.30;;
17528;SDS011;8882;53.192;8.184;2023-07-28T19:19:59;2.10;;;1.92;;
17528;SDS011;8882;53.192;8.184;2023-07-28T19:22:24;2.47;;;2.10;;
17528;SDS011;8882;53.192;8.184;2023-07-28T19:24:50;4.32;;;2.22;;
17528;SDS011;8882;53.192;8.184;2023-07-28T19:27:17;2.70;;;2.10;;